sensor_id;sensor_type;location;lat;lon;timestamp;pressure;altitude;pressure_sealevel;temperature;humidity
69855;BME280;57146;48.140;16.304;2023-01-28T00:01:28;99749.53;;;-1.86;88.81
69855;BME280;57146;48.140;16.304;2023-01-28T00:03:55;99740.00;;;-1.86;89.39
69855;BME280;57146;48.140;16.304;2023-01-28T00:06:22;99755.31;;;-1.84;88.56
69855;BME280;57146;48.140;16.304;2023-01-28T00:08:49;99748.53;;;-1.85;88.22
69855;BME280;57146;48.140;16.304;2023-01-28T00:11:16;99743.81;;;-1.88;88.61
69855;BME280;57146;48.140;16.304;2023-01-28T00:13:43;99754.72;;;-1.86;88.75
69855;BME280;57146;48.140;16.304;2023-01-28T00:16:10;99749.78;;;-1.88;88.53
69855;BME280;57146;48.140;16.304;2023-01-28T00:18:37;99741.63;;;-1.85;88.66
69855;BME280;57146;48.140;16.304;2023-01-28T00:21:10;99746.19;;;-1.87;88.35
69855;BME280;57146;48.140;16.304;2023-01-28T00:23:39;99755.31;;;-1.84;88.43
69855;BME280;57146;48.140;16.304;2023-01-28T00:26:10;99747.94;;;-1.81;88.44
69855;BME280;57146;48.140;16.304;2023-01-28T00:28:41;99750.72;;;-1.82;87.90
69855;BME280;57146;48.140;16.304;2023-01-28T00:31:16;99747.34;;;-1.83;87.78
69855;BME280;57146;48.140;16.304;2023-01-28T00:33:46;99742.59;;;-1.86;87.85
69855;BME280;57146;48.140;16.304;2023-01-28T00:36:14;99748.16;;;-1.89;88.13
69855;BME280;57146;48.140;16.304;2023-01-28T00:38:42;99745.97;;;-1.85;87.70
69855;BME280;57146;48.140;16.304;2023-01-28T00:41:14;99745.16;;;-1.86;87.71
69855;BME280;57146;48.140;16.304;2023-01-28T00:43:43;99742.59;;;-1.86;88.08
69855;BME280;57146;48.140;16.304;2023-01-28T00:46:11;99739.59;;;-1.83;88.27
69855;BME280;57146;48.140;16.304;2023-01-28T00:48:39;99740.41;;;-1.89;87.68
69855;BME280;57146;48.140;16.304;2023-01-28T00:51:07;99736.66;;;-1.86;88.70
69855;BME280;57146;48.140;16.304;2023-01-28T00:53:35;99742.81;;;-1.87;88.50
69855;BME280;57146;48.140;16.304;2023-01-28T00:56:04;99736.47;;;-1.85;88.13
69855;BME280;57146;48.140;16.304;2023-01-28T00:58:32;99738.81;;;-1.83;87.78
69855;BME280;57146;48.140;16.304;2023-01-28T01:01:15;99736.06;;;-1.88;88.52
69855;BME280;57146;48.140;16.304;2023-01-28T01:03:43;99738.22;;;-1.85;87.94
69855;BME280;57146;48.140;16.304;2023-01-28T01:06:11;99737.81;;;-1.82;88.46
69855;BME280;57146;48.140;16.304;2023-01-28T01:08:40;99734.66;;;-1.84;88.17
69855;BME280;57146;48.140;16.304;2023-01-28T01:11:09;99737.63;;;-1.81;88.47
69855;BME280;57146;48.140;16.304;2023-01-28T01:13:38;99740.59;;;-1.84;88.46
69855;BME280;57146;48.140;16.304;2023-01-28T01:16:14;99738.59;;;-1.82;88.18
69855;BME280;57146;48.140;16.304;2023-01-28T01:18:41;99740.19;;;-1.81;87.66
69855;BME280;57146;48.140;16.304;2023-01-28T01:21:16;99750.31;;;-1.79;88.03
69855;BME280;57146;48.140;16.304;2023-01-28T01:23:45;99742.41;;;-1.84;87.59
69855;BME280;57146;48.140;16.304;2023-01-28T01:26:13;99751.50;;;-1.82;88.72
69855;BME280;57146;48.140;16.304;2023-01-28T01:28:42;99743.75;;;-1.82;88.08
69855;BME280;57146;48.140;16.304;2023-01-28T01:31:15;99760.84;;;-1.81;88.17
69855;BME280;57146;48.140;16.304;2023-01-28T01:33:43;99757.84;;;-1.78;87.68
69855;BME280;57146;48.140;16.304;2023-01-28T01:36:13;99747.31;;;-1.76;87.37
69855;BME280;57146;48.140;16.304;2023-01-28T01:38:43;99762.44;;;-1.80;87.44
69855;BME280;57146;48.140;16.304;2023-01-28T01:41:28;99757.47;;;-1.81;87.44
69855;BME280;57146;48.140;16.304;2023-01-28T01:43:58;99752.09;;;-1.80;87.47
69855;BME280;57146;48.140;16.304;2023-01-28T01:46:46;99758.25;;;-1.81;87.81
69855;BME280;57146;48.140;16.304;2023-01-28T01:49:18;99756.66;;;-1.82;87.38
69855;BME280;57146;48.140;16.304;2023-01-28T01:52:18;99759.47;;;-1.83;86.81
69855;BME280;57146;48.140;16.304;2023-01-28T01:54:51;99761.63;;;-1.80;87.53
69855;BME280;57146;48.140;16.304;2023-01-28T01:57:27;99757.25;;;-1.80;87.24
69855;BME280;57146;48.140;16.304;2023-01-28T01:59:58;99763.63;;;-1.82;87.49
69855;BME280;57146;48.140;16.304;2023-01-28T02:02:27;99765.78;;;-1.79;87.68
69855;BME280;57146;48.140;16.304;2023-01-28T02:04:58;99759.25;;;-1.82;87.96
69855;BME280;57146;48.140;16.304;2023-01-28T02:07:27;99755.28;;;-1.78;87.03
69855;BME280;57146;48.140;16.304;2023-01-28T02:10:20;99749.75;;;-1.81;87.19
69855;BME280;57146;48.140;16.304;2023-01-28T02:12:54;99746.94;;;-1.80;87.65
69855;BME280;57146;48.140;16.304;2023-01-28T02:15:25;99756.66;;;-1.82;88.07
69855;BME280;57146;48.140;16.304;2023-01-28T02:17:57;99754.91;;;-1.81;87.82
69855;BME280;57146;48.140;16.304;2023-01-28T02:29:04;99757.63;;;-1.76;87.85
69855;BME280;57146;48.140;16.304;2023-01-28T02:32:08;99767.41;;;-1.85;87.98
69855;BME280;57146;48.140;16.304;2023-01-28T02:39:36;99756.72;;;-1.88;88.52
69855;BME280;57146;48.140;16.304;2023-01-28T02:42:38;99757.28;;;-1.86;88.76
69855;BME280;57146;48.140;16.304;2023-01-28T02:44:58;99755.50;;;-1.86;88.43
69855;BME280;57146;48.140;16.304;2023-01-28T02:47:25;99752.13;;;-1.86;88.48
69855;BME280;57146;48.140;16.304;2023-01-28T02:49:54;99749.53;;;-1.86;88.67
69855;BME280;57146;48.140;16.304;2023-01-28T02:55:12;99760.66;;;-1.86;88.44
69855;BME280;57146;48.140;16.304;2023-01-28T03:00:34;99760.47;;;-1.84;88.45
69855;BME280;57146;48.140;16.304;2023-01-28T03:06:05;99761.03;;;-1.82;87.98
69855;BME280;57146;48.140;16.304;2023-01-28T03:08:36;99758.69;;;-1.84;87.75
69855;BME280;57146;48.140;16.304;2023-01-28T03:11:05;99759.47;;;-1.83;88.18
69855;BME280;57146;48.140;16.304;2023-01-28T03:13:34;99755.09;;;-1.83;88.97
69855;BME280;57146;48.140;16.304;2023-01-28T03:16:03;99757.66;;;-1.83;88.54
69855;BME280;57146;48.140;16.304;2023-01-28T03:18:49;99752.31;;;-1.81;88.80
69855;BME280;57146;48.140;16.304;2023-01-28T03:21:31;99759.69;;;-1.85;88.86
69855;BME280;57146;48.140;16.304;2023-01-28T03:24:08;99772.38;;;-1.83;88.48
69855;BME280;57146;48.140;16.304;2023-01-28T03:27:06;99765.81;;;-1.86;88.70
69855;BME280;57146;48.140;16.304;2023-01-28T03:29:37;99773.00;;;-1.88;88.91
69855;BME280;57146;48.140;16.304;2023-01-28T03:32:11;99761.50;;;-1.92;89.42
69855;BME280;57146;48.140;16.304;2023-01-28T03:34:40;99769.81;;;-1.90;89.42
69855;BME280;57146;48.140;16.304;2023-01-28T03:37:08;99764.25;;;-1.87;89.03
69855;BME280;57146;48.140;16.304;2023-01-28T03:39:47;99767.63;;;-1.86;89.26
69855;BME280;57146;48.140;16.304;2023-01-28T03:42:16;99775.16;;;-1.85;89.24
69855;BME280;57146;48.140;16.304;2023-01-28T03:45:02;99772.78;;;-1.86;90.01
69855;BME280;57146;48.140;16.304;2023-01-28T03:47:56;99782.72;;;-1.90;89.93
69855;BME280;57146;48.140;16.304;2023-01-28T03:50:23;99776.97;;;-1.92;90.42
69855;BME280;57146;48.140;16.304;2023-01-28T03:52:55;99779.38;;;-1.97;91.47
69855;BME280;57146;48.140;16.304;2023-01-28T03:55:29;99776.78;;;-1.97;91.64
69855;BME280;57146;48.140;16.304;2023-01-28T03:57:57;99775.78;;;-1.96;91.74
69855;BME280;57146;48.140;16.304;2023-01-28T04:00:24;99770.44;;;-1.95;91.54
69855;BME280;57146;48.140;16.304;2023-01-28T04:02:54;99780.94;;;-1.96;91.98
69855;BME280;57146;48.140;16.304;2023-01-28T04:05:23;99780.16;;;-1.97;92.21
69855;BME280;57146;48.140;16.304;2023-01-28T04:07:55;99776.38;;;-1.94;92.11
69855;BME280;57146;48.140;16.304;2023-01-28T04:10:48;99779.19;;;-1.96;91.70
69855;BME280;57146;48.140;16.304;2023-01-28T04:13:28;99784.91;;;-1.94;91.82
69855;BME280;57146;48.140;16.304;2023-01-28T04:15:59;99777.16;;;-1.94;91.51
69855;BME280;57146;48.140;16.304;2023-01-28T04:18:26;99781.94;;;-1.97;91.43
69855;BME280;57146;48.140;16.304;2023-01-28T04:20:56;99780.00;;;-2.02;91.66
69855;BME280;57146;48.140;16.304;2023-01-28T04:23:24;99780.38;;;-1.98;91.96
69855;BME280;57146;48.140;16.304;2023-01-28T04:25:51;99786.94;;;-2.02;92.07
69855;BME280;57146;48.140;16.304;2023-01-28T04:28:20;99788.53;;;-2.01;91.77
69855;BME280;57146;48.140;16.304;2023-01-28T04:30:47;99787.50;;;-2.00;92.21
69855;BME280;57146;48.140;16.304;2023-01-28T04:33:20;99788.31;;;-2.00;92.19
69855;BME280;57146;48.140;16.304;2023-01-28T04:36:00;99781.78;;;-2.02;92.52
69855;BME280;57146;48.140;16.304;2023-01-28T04:38:52;99781.41;;;-2.06;92.64
69855;BME280;57146;48.140;16.304;2023-01-28T04:41:34;99787.75;;;-2.08;93.01
69855;BME280;57146;48.140;16.304;2023-01-28T04:44:11;99792.31;;;-2.10;93.73
69855;BME280;57146;48.140;16.304;2023-01-28T04:47:05;99791.13;;;-2.08;94.19
69855;BME280;57146;48.140;16.304;2023-01-28T04:49:55;99791.72;;;-2.06;93.69
69855;BME280;57146;48.140;16.304;2023-01-28T04:52:40;99794.31;;;-2.06;93.29
69855;BME280;57146;48.140;16.304;2023-01-28T04:55:17;99787.75;;;-2.08;93.25
69855;BME280;57146;48.140;16.304;2023-01-28T04:58:09;99806.41;;;-2.06;93.20
69855;BME280;57146;48.140;16.304;2023-01-28T05:00:37;99797.44;;;-2.04;92.88
69855;BME280;57146;48.140;16.304;2023-01-28T05:03:04;99805.41;;;-2.05;93.62
69855;BME280;57146;48.140;16.304;2023-01-28T05:05:31;99799.84;;;-2.02;93.58
69855;BME280;57146;48.140;16.304;2023-01-28T05:08:15;99806.97;;;-2.04;93.17
69855;BME280;57146;48.140;16.304;2023-01-28T05:10:45;99804.22;;;-2.03;92.71
69855;BME280;57146;48.140;16.304;2023-01-28T05:13:12;99804.41;;;-2.04;93.03
69855;BME280;57146;48.140;16.304;2023-01-28T05:15:39;99799.84;;;-2.02;93.22
69855;BME280;57146;48.140;16.304;2023-01-28T05:18:06;99799.25;;;-2.04;93.48
69855;BME280;57146;48.140;16.304;2023-01-28T05:20:39;99803.63;;;-2.05;93.41
69855;BME280;57146;48.140;16.304;2023-01-28T05:23:06;99802.81;;;-2.05;94.05
69855;BME280;57146;48.140;16.304;2023-01-28T05:25:48;99805.19;;;-2.04;94.42
69855;BME280;57146;48.140;16.304;2023-01-28T05:28:19;99818.88;;;-2.03;94.42
69855;BME280;57146;48.140;16.304;2023-01-28T05:30:47;99812.13;;;-2.04;94.75
69855;BME280;57146;48.140;16.304;2023-01-28T05:33:14;99811.75;;;-2.01;94.62
69855;BME280;57146;48.140;16.304;2023-01-28T05:35:42;99816.91;;;-2.01;94.95
69855;BME280;57146;48.140;16.304;2023-01-28T05:38:10;99807.78;;;-2.04;95.41
69855;BME280;57146;48.140;16.304;2023-01-28T05:40:43;99820.47;;;-2.02;95.54
69855;BME280;57146;48.140;16.304;2023-01-28T05:43:11;99818.47;;;-2.00;95.68
69855;BME280;57146;48.140;16.304;2023-01-28T05:45:44;99818.88;;;-2.03;95.61
69855;BME280;57146;48.140;16.304;2023-01-28T05:48:36;99810.34;;;-2.04;95.56
69855;BME280;57146;48.140;16.304;2023-01-28T05:51:14;99818.88;;;-2.03;95.23
69855;BME280;57146;48.140;16.304;2023-01-28T05:53:45;99824.63;;;-2.01;95.48
69855;BME280;57146;48.140;16.304;2023-01-28T05:56:12;99816.91;;;-2.01;95.64
69855;BME280;57146;48.140;16.304;2023-01-28T05:59:05;99823.44;;;-1.99;95.45
69855;BME280;57146;48.140;16.304;2023-01-28T06:01:58;99823.88;;;-2.08;96.12
69855;BME280;57146;48.140;16.304;2023-01-28T06:04:26;99821.28;;;-2.08;96.19
69855;BME280;57146;48.140;16.304;2023-01-28T06:06:54;99820.47;;;-2.02;95.89
69855;BME280;57146;48.140;16.304;2023-01-28T06:09:21;99818.31;;;-2.05;96.52
69855;BME280;57146;48.140;16.304;2023-01-28T06:11:50;99824.03;;;-2.03;95.75
69855;BME280;57146;48.140;16.304;2023-01-28T06:14:18;99826.44;;;-2.02;95.78
69855;BME280;57146;48.140;16.304;2023-01-28T06:17:07;99829.97;;;-1.96;95.29
69855;BME280;57146;48.140;16.304;2023-01-28T06:19:58;99828.38;;;-1.97;94.96
69855;BME280;57146;48.140;16.304;2023-01-28T06:22:25;99829.00;;;-1.95;94.96
69855;BME280;57146;48.140;16.304;2023-01-28T06:24:52;99834.72;;;-1.93;94.82
69855;BME280;57146;48.140;16.304;2023-01-28T06:27:20;99834.31;;;-1.90;94.41
69855;BME280;57146;48.140;16.304;2023-01-28T06:29:47;99826.78;;;-1.85;94.57
69855;BME280;57146;48.140;16.304;2023-01-28T06:32:15;99828.75;;;-1.87;94.14
69855;BME280;57146;48.140;16.304;2023-01-28T06:34:42;99840.25;;;-1.83;94.62
69855;BME280;57146;48.140;16.304;2023-01-28T06:37:13;99845.63;;;-1.84;93.89
69855;BME280;57146;48.140;16.304;2023-01-28T06:40:08;99846.81;;;-1.87;93.85
69855;BME280;57146;48.140;16.304;2023-01-28T06:42:39;99851.38;;;-1.89;93.87
69855;BME280;57146;48.140;16.304;2023-01-28T06:45:06;99859.31;;;-1.84;94.26
69855;BME280;57146;48.140;16.304;2023-01-28T06:47:34;99861.31;;;-1.86;94.20
69855;BME280;57146;48.140;16.304;2023-01-28T06:50:00;99864.66;;;-1.85;93.83
69855;BME280;57146;48.140;16.304;2023-01-28T06:52:27;99866.28;;;-1.84;94.58
69855;BME280;57146;48.140;16.304;2023-01-28T06:54:54;99873.00;;;-1.83;94.26
69855;BME280;57146;48.140;16.304;2023-01-28T06:57:22;99869.44;;;-1.82;95.02
69855;BME280;57146;48.140;16.304;2023-01-28T06:59:51;99863.47;;;-1.76;94.32
69855;BME280;57146;48.140;16.304;2023-01-28T07:02:18;99876.16;;;-1.75;94.71
69855;BME280;57146;48.140;16.304;2023-01-28T07:04:45;99873.16;;;-1.72;94.53
69855;BME280;57146;48.140;16.304;2023-01-28T07:07:12;99881.13;;;-1.73;94.71
69855;BME280;57146;48.140;16.304;2023-01-28T07:09:39;99884.66;;;-1.67;94.82
69855;BME280;57146;48.140;16.304;2023-01-28T07:12:30;99876.72;;;-1.66;94.60
69855;BME280;57146;48.140;16.304;2023-01-28T07:14:57;99875.72;;;-1.65;95.02
69855;BME280;57146;48.140;16.304;2023-01-28T07:17:26;99868.38;;;-1.68;94.71
69855;BME280;57146;48.140;16.304;2023-01-28T07:19:53;99877.94;;;-1.69;94.79
69855;BME280;57146;48.140;16.304;2023-01-28T07:22:45;99873.94;;;-1.64;95.07
69855;BME280;57146;48.140;16.304;2023-01-28T07:25:14;99872.97;;;-1.63;95.20
69855;BME280;57146;48.140;16.304;2023-01-28T07:27:49;99877.13;;;-1.62;95.44
69855;BME280;57146;48.140;16.304;2023-01-28T07:30:20;99872.97;;;-1.63;95.23
69855;BME280;57146;48.140;16.304;2023-01-28T07:32:52;99875.34;;;-1.69;96.84
69855;BME280;57146;48.140;16.304;2023-01-28T07:35:21;99877.94;;;-1.69;96.52
69855;BME280;57146;48.140;16.304;2023-01-28T07:37:56;99882.28;;;-1.69;96.17
69855;BME280;57146;48.140;16.304;2023-01-28T07:40:25;99881.91;;;-1.66;96.52
69855;BME280;57146;48.140;16.304;2023-01-28T07:42:53;99876.91;;;-1.67;95.97
69855;BME280;57146;48.140;16.304;2023-01-28T07:45:22;99879.09;;;-1.64;95.94
69855;BME280;57146;48.140;16.304;2023-01-28T07:47:56;99879.09;;;-1.64;95.73
69855;BME280;57146;48.140;16.304;2023-01-28T07:50:49;99880.66;;;-1.57;94.89
69855;BME280;57146;48.140;16.304;2023-01-28T07:53:40;99877.50;;;-1.59;95.20
69855;BME280;57146;48.140;16.304;2023-01-28T07:56:12;99881.47;;;-1.56;95.26
69855;BME280;57146;48.140;16.304;2023-01-28T07:58:39;99888.00;;;-1.54;94.96
69855;BME280;57146;48.140;16.304;2023-01-28T08:01:06;99888.38;;;-1.50;95.07
69855;BME280;57146;48.140;16.304;2023-01-28T08:03:34;99903.06;;;-1.44;94.92
69855;BME280;57146;48.140;16.304;2023-01-28T08:06:03;99898.50;;;-1.49;95.23
69855;BME280;57146;48.140;16.304;2023-01-28T08:08:30;99896.50;;;-1.47;95.24
69855;BME280;57146;48.140;16.304;2023-01-28T08:11:08;99903.06;;;-1.44;95.73
69855;BME280;57146;48.140;16.304;2023-01-28T08:13:36;99907.41;;;-1.38;95.12
69855;BME280;57146;48.140;16.304;2023-01-28T08:16:03;99915.16;;;-1.38;95.17
69855;BME280;57146;48.140;16.304;2023-01-28T08:18:38;99915.16;;;-1.38;95.64
69855;BME280;57146;48.140;16.304;2023-01-28T08:21:05;99913.16;;;-1.36;95.37
69855;BME280;57146;48.140;16.304;2023-01-28T08:23:33;99919.53;;;-1.38;95.99
69855;BME280;57146;48.140;16.304;2023-01-28T08:26:00;99922.91;;;-1.38;96.19
69855;BME280;57146;48.140;16.304;2023-01-28T08:28:29;99923.50;;;-1.42;96.26
69855;BME280;57146;48.140;16.304;2023-01-28T08:30:58;99924.31;;;-1.42;96.25
69855;BME280;57146;48.140;16.304;2023-01-28T08:33:51;99922.31;;;-1.40;95.69
69855;BME280;57146;48.140;16.304;2023-01-28T08:36:42;99918.31;;;-1.36;95.86
69855;BME280;57146;48.140;16.304;2023-01-28T08:39:09;99937.41;;;-1.37;95.73
69855;BME280;57146;48.140;16.304;2023-01-28T08:41:36;99932.22;;;-1.37;94.72
69855;BME280;57146;48.140;16.304;2023-01-28T08:44:03;99941.38;;;-1.34;95.21
69855;BME280;57146;48.140;16.304;2023-01-28T08:46:32;99937.00;;;-1.34;94.91
69855;BME280;57146;48.140;16.304;2023-01-28T08:48:59;99937.38;;;-1.30;95.29
69855;BME280;57146;48.140;16.304;2023-01-28T08:51:26;99942.31;;;-1.29;94.93
69855;BME280;57146;48.140;16.304;2023-01-28T08:53:54;99941.91;;;-1.26;95.00
69855;BME280;57146;48.140;16.304;2023-01-28T08:56:20;99937.72;;;-1.20;94.17
69855;BME280;57146;48.140;16.304;2023-01-28T08:58:47;99940.50;;;-1.22;94.26
69855;BME280;57146;48.140;16.304;2023-01-28T09:01:16;99934.34;;;-1.21;95.13
69855;BME280;57146;48.140;16.304;2023-01-28T09:03:43;99946.25;;;-1.19;95.06
69855;BME280;57146;48.140;16.304;2023-01-28T09:06:12;99952.38;;;-1.14;95.30
69855;BME280;57146;48.140;16.304;2023-01-28T09:08:39;99945.63;;;-1.15;94.99
69855;BME280;57146;48.140;16.304;2023-01-28T09:11:08;99944.25;;;-1.17;95.83
69855;BME280;57146;48.140;16.304;2023-01-28T09:13:35;99952.75;;;-1.10;94.96
69855;BME280;57146;48.140;16.304;2023-01-28T09:16:04;99954.00;;;-1.13;95.41
69855;BME280;57146;48.140;16.304;2023-01-28T09:18:31;99952.75;;;-1.10;94.97
69855;BME280;57146;48.140;16.304;2023-01-28T09:20:58;99957.53;;;-1.07;95.37
69855;BME280;57146;48.140;16.304;2023-01-28T09:23:26;99958.53;;;-1.08;95.93
69855;BME280;57146;48.140;16.304;2023-01-28T09:25:59;99955.72;;;-1.07;95.41
69855;BME280;57146;48.140;16.304;2023-01-28T09:28:27;99957.13;;;-1.04;95.93
69855;BME280;57146;48.140;16.304;2023-01-28T09:31:06;99964.31;;;-1.06;94.99
69855;BME280;57146;48.140;16.304;2023-01-28T09:33:37;99963.91;;;-1.03;94.78
69855;BME280;57146;48.140;16.304;2023-01-28T09:36:10;99960.88;;;-1.00;94.95
69855;BME280;57146;48.140;16.304;2023-01-28T09:38:38;99964.28;;;-1.00;95.14
69855;BME280;57146;48.140;16.304;2023-01-28T09:41:24;99969.06;;;-1.03;95.39
69855;BME280;57146;48.140;16.304;2023-01-28T09:46:42;99978.56;;;-0.97;94.56
69855;BME280;57146;48.140;16.304;2023-01-28T09:49:24;99976.59;;;-1.02;95.16
69855;BME280;57146;48.140;16.304;2023-01-28T09:51:55;99976.75;;;-0.97;94.71
69855;BME280;57146;48.140;16.304;2023-01-28T09:57:51;99970.78;;;-0.97;95.64
69855;BME280;57146;48.140;16.304;2023-01-28T10:00:25;99967.63;;;-0.92;94.38
69855;BME280;57146;48.140;16.304;2023-01-28T10:14:06;99967.41;;;-0.91;95.54
69855;BME280;57146;48.140;16.304;2023-01-28T10:16:42;99956.28;;;-0.91;95.56
69855;BME280;57146;48.140;16.304;2023-01-28T10:19:29;99952.69;;;-0.90;95.42
69855;BME280;57146;48.140;16.304;2023-01-28T10:22:04;99947.31;;;-0.89;94.75
69855;BME280;57146;48.140;16.304;2023-01-28T10:24:35;99948.47;;;-0.85;94.95
69855;BME280;57146;48.140;16.304;2023-01-28T10:27:30;99956.81;;;-0.83;94.81
69855;BME280;57146;48.140;16.304;2023-01-28T10:30:14;99956.22;;;-0.85;94.68
69855;BME280;57146;48.140;16.304;2023-01-28T10:32:52;99952.88;;;-0.85;94.24
69855;BME280;57146;48.140;16.304;2023-01-28T10:35:22;99951.63;;;-0.83;95.16
69855;BME280;57146;48.140;16.304;2023-01-28T10:37:54;99958.41;;;-0.82;94.58
69855;BME280;57146;48.140;16.304;2023-01-28T10:40:25;99957.81;;;-0.84;95.12
69855;BME280;57146;48.140;16.304;2023-01-28T10:42:51;99961.97;;;-0.83;94.91
69855;BME280;57146;48.140;16.304;2023-01-28T10:48:17;99958.41;;;-0.82;95.16
69855;BME280;57146;48.140;16.304;2023-01-28T10:50:56;99959.97;;;-0.81;95.58
69855;BME280;57146;48.140;16.304;2023-01-28T10:53:39;99961.00;;;-0.82;95.11
69855;BME280;57146;48.140;16.304;2023-01-28T10:56:12;99948.47;;;-0.85;94.57
69855;BME280;57146;48.140;16.304;2023-01-28T10:58:55;99957.03;;;-0.84;95.82
69855;BME280;57146;48.140;16.304;2023-01-28T11:01:23;99954.59;;;-0.79;95.76
69855;BME280;57146;48.140;16.304;2023-01-28T11:03:57;99952.88;;;-0.85;96.46
69855;BME280;57146;48.140;16.304;2023-01-28T11:06:27;99957.59;;;-0.82;95.92
69855;BME280;57146;48.140;16.304;2023-01-28T11:08:55;99950.84;;;-0.83;95.81
69855;BME280;57146;48.140;16.304;2023-01-28T11:11:27;99956.63;;;-0.81;96.60
69855;BME280;57146;48.140;16.304;2023-01-28T11:13:56;99951.63;;;-0.83;97.03
69855;BME280;57146;48.140;16.304;2023-01-28T11:16:25;99950.06;;;-0.84;97.26
69855;BME280;57146;48.140;16.304;2023-01-28T11:19:03;99955.00;;;-0.82;96.62
69855;BME280;57146;48.140;16.304;2023-01-28T11:21:31;99957.81;;;-0.84;96.58
69855;BME280;57146;48.140;16.304;2023-01-28T11:24:12;99953.25;;;-0.82;97.09
69855;BME280;57146;48.140;16.304;2023-01-28T11:26:47;99953.47;;;-0.90;97.75
69855;BME280;57146;48.140;16.304;2023-01-28T11:29:32;99953.66;;;-0.85;96.75
69855;BME280;57146;48.140;16.304;2023-01-28T11:32:25;99954.63;;;-0.86;97.06
69855;BME280;57146;48.140;16.304;2023-01-28T11:34:55;99954.25;;;-0.89;96.80
69855;BME280;57146;48.140;16.304;2023-01-28T11:37:25;99960.81;;;-0.87;97.30
69855;BME280;57146;48.140;16.304;2023-01-28T11:40:18;99959.00;;;-0.86;97.91
69855;BME280;57146;48.140;16.304;2023-01-28T11:42:49;99960.41;;;-0.84;97.98
69855;BME280;57146;48.140;16.304;2023-01-28T11:45:23;99957.19;;;-0.79;98.03
69855;BME280;57146;48.140;16.304;2023-01-28T11:47:59;99957.00;;;-0.78;97.37
69855;BME280;57146;48.140;16.304;2023-01-28T11:51:00;99963.13;;;-0.79;98.06
69855;BME280;57146;48.140;16.304;2023-01-28T11:56:30;99956.78;;;-0.76;96.73
69855;BME280;57146;48.140;16.304;2023-01-28T11:59:14;99951.59;;;-0.76;96.39
69855;BME280;57146;48.140;16.304;2023-01-28T12:03:11;99959.31;;;-0.69;97.96
69855;BME280;57146;48.140;16.304;2023-01-28T12:13:44;99954.78;;;-0.74;96.36
69855;BME280;57146;48.140;16.304;2023-01-28T12:16:34;99951.56;;;-0.69;96.14
69855;BME280;57146;48.140;16.304;2023-01-28T12:19:38;99953.72;;;-0.66;94.36
69855;BME280;57146;48.140;16.304;2023-01-28T12:28:14;99954.91;;;-0.62;94.79
69855;BME280;57146;48.140;16.304;2023-01-28T12:45:29;99966.81;;;-0.61;95.60
69855;BME280;57146;48.140;16.304;2023-01-28T12:48:10;99969.47;;;-0.43;96.86
69855;BME280;57146;48.140;16.304;2023-01-28T12:50:57;99976.44;;;-0.43;95.97
69855;BME280;57146;48.140;16.304;2023-01-28T12:53:36;99962.56;;;-0.49;93.36
69855;BME280;57146;48.140;16.304;2023-01-28T12:56:30;99970.38;;;-0.56;93.46
69855;BME280;57146;48.140;16.304;2023-01-28T13:01:46;99968.34;;;-0.54;94.54
69855;BME280;57146;48.140;16.304;2023-01-28T13:07:19;99971.16;;;-0.55;94.32
69855;BME280;57146;48.140;16.304;2023-01-28T13:13:32;99974.53;;;-0.55;94.04
69855;BME280;57146;48.140;16.304;2023-01-28T13:16:01;99970.56;;;-0.57;93.45
69855;BME280;57146;48.140;16.304;2023-01-28T13:21:02;99978.91;;;-0.55;93.34
69855;BME280;57146;48.140;16.304;2023-01-28T13:28:51;99983.94;;;-0.60;93.63
69855;BME280;57146;48.140;16.304;2023-01-28T13:31:22;99988.28;;;-0.61;93.94
69855;BME280;57146;48.140;16.304;2023-01-28T13:36:35;99987.50;;;-0.61;93.92
69855;BME280;57146;48.140;16.304;2023-01-28T13:39:17;99991.25;;;-0.57;93.93
69855;BME280;57146;48.140;16.304;2023-01-28T13:41:52;99996.88;;;-0.60;93.05
69855;BME280;57146;48.140;16.304;2023-01-28T13:44:29;99996.28;;;-0.62;93.06
69855;BME280;57146;48.140;16.304;2023-01-28T13:49:42;100000.28;;;-0.66;92.86
69855;BME280;57146;48.140;16.304;2023-01-28T13:52:31;100007.03;;;-0.65;93.01
69855;BME280;57146;48.140;16.304;2023-01-28T13:55:34;100012.19;;;-0.65;91.86
69855;BME280;57146;48.140;16.304;2023-01-28T13:58:35;100005.78;;;-0.56;92.80
69855;BME280;57146;48.140;16.304;2023-01-28T14:10:07;100011.94;;;-0.57;91.89
69855;BME280;57146;48.140;16.304;2023-01-28T14:15:24;100010.38;;;-0.58;91.54
69855;BME280;57146;48.140;16.304;2023-01-28T14:17:59;100018.34;;;-0.60;91.35
69855;BME280;57146;48.140;16.304;2023-01-28T14:20:33;100011.38;;;-0.59;92.15
69855;BME280;57146;48.140;16.304;2023-01-28T14:23:05;100010.38;;;-0.58;91.61
69855;BME280;57146;48.140;16.304;2023-01-28T14:28:20;100017.31;;;-0.52;91.02
69855;BME280;57146;48.140;16.304;2023-01-28T14:30:56;100026.06;;;-0.53;91.47
69855;BME280;57146;48.140;16.304;2023-01-28T14:33:32;100022.28;;;-0.57;91.33
69855;BME280;57146;48.140;16.304;2023-01-28T14:35:59;100033.25;;;-0.62;91.69
69855;BME280;57146;48.140;16.304;2023-01-28T14:38:27;100021.72;;;-0.59;92.32
69855;BME280;57146;48.140;16.304;2023-01-28T14:40:56;100027.69;;;-0.59;92.57
69855;BME280;57146;48.140;16.304;2023-01-28T14:43:25;100028.69;;;-0.60;92.39
69855;BME280;57146;48.140;16.304;2023-01-28T14:57:24;100045.44;;;-0.69;91.98
69855;BME280;57146;48.140;16.304;2023-01-28T15:00:26;100040.06;;;-0.67;92.43
69855;BME280;57146;48.140;16.304;2023-01-28T15:02:53;100044.41;;;-0.68;92.73
69855;BME280;57146;48.140;16.304;2023-01-28T15:05:27;100047.81;;;-0.67;93.15
69855;BME280;57146;48.140;16.304;2023-01-28T15:07:54;100042.44;;;-0.66;92.55
69855;BME280;57146;48.140;16.304;2023-01-28T15:10:27;100049.41;;;-0.66;93.06
69855;BME280;57146;48.140;16.304;2023-01-28T15:13:15;100054.75;;;-0.68;93.51
69855;BME280;57146;48.140;16.304;2023-01-28T15:15:46;100050.41;;;-0.67;93.95
69855;BME280;57146;48.140;16.304;2023-01-28T15:18:18;100056.78;;;-0.70;94.60
69855;BME280;57146;48.140;16.304;2023-01-28T15:20:47;100065.94;;;-0.67;94.66
69855;BME280;57146;48.140;16.304;2023-01-28T15:23:17;100070.88;;;-0.66;94.05
69855;BME280;57146;48.140;16.304;2023-01-28T15:25:47;100080.81;;;-0.63;94.15
69855;BME280;57146;48.140;16.304;2023-01-28T15:28:33;100077.22;;;-0.62;94.64